sensor_id;sensor_type;location;lat;lon;timestamp;P1;durP1;ratioP1;P2;durP2;ratioP2
66472;SDS011;70264;48.802;9.224;2023-05-23T00:00:57;25.23;;;13.70;;
66472;SDS011;70264;48.802;9.224;2023-05-23T00:03:25;30.30;;;15.77;;
66472;SDS011;70264;48.802;9.224;2023-05-23T00:05:53;28.58;;;15.73;;
66472;SDS011;70264;48.802;9.224;2023-05-23T00:08:20;29.23;;;15.15;;
66472;SDS011;70264;48.802;9.224;2023-05-23T00:10:45;32.25;;;16.00;;
66472;SDS011;70264;48.802;9.224;2023-05-23T00:13:13;31.80;;;17.35;;
66472;SDS011;70264;48.802;9.224;2023-05-23T00:15:39;35.33;;;17.47;;
66472;SDS011;70264;48.802;9.224;2023-05-23T00:18:08;38.83;;;18.83;;
66472;SDS011;70264;48.802;9.224;2023-05-23T00:20:40;41.15;;;18.60;;
66472;SDS011;70264;48.802;9.224;2023-05-23T00:23:09;38.72;;;18.40;;
66472;SDS011;70264;48.802;9.224;2023-05-23T00:25:43;37.47;;;19.20;;
66472;SDS011;70264;48.802;9.224;2023-05-23T00:30:37;45.63;;;20.93;;
66472;SDS011;70264;48.802;9.224;2023-05-23T00:33:02;46.20;;;20.27;;
66472;SDS011;70264;48.802;9.224;2023-05-23T00:35:27;49.93;;;21.03;;
66472;SDS011;70264;48.802;9.224;2023-05-23T00:37:55;46.30;;;20.25;;
66472;SDS011;70264;48.802;9.224;2023-05-23T00:40:23;46.17;;;21.70;;
66472;SDS011;70264;48.802;9.224;2023-05-23T00:42:51;43.08;;;20.67;;
66472;SDS011;70264;48.802;9.224;2023-05-23T00:45:16;46.47;;;21.48;;
66472;SDS011;70264;48.802;9.224;2023-05-23T00:47:44;45.20;;;22.48;;
66472;SDS011;70264;48.802;9.224;2023-05-23T00:50:12;45.22;;;20.85;;
66472;SDS011;70264;48.802;9.224;2023-05-23T00:52:41;44.20;;;21.88;;
66472;SDS011;70264;48.802;9.224;2023-05-23T00:55:13;47.42;;;21.15;;
66472;SDS011;70264;48.802;9.224;2023-05-23T00:57:41;42.60;;;21.13;;
66472;SDS011;70264;48.802;9.224;2023-05-23T01:00:08;43.33;;;20.40;;
66472;SDS011;70264;48.802;9.224;2023-05-23T01:02:39;45.05;;;21.10;;
66472;SDS011;70264;48.802;9.224;2023-05-23T01:05:09;45.85;;;21.65;;
66472;SDS011;70264;48.802;9.224;2023-05-23T01:07:37;44.65;;;21.75;;
66472;SDS011;70264;48.802;9.224;2023-05-23T01:10:06;46.97;;;22.00;;
66472;SDS011;70264;48.802;9.224;2023-05-23T01:12:49;49.00;;;22.40;;
66472;SDS011;70264;48.802;9.224;2023-05-23T01:15:46;45.17;;;22.38;;
66472;SDS011;70264;48.802;9.224;2023-05-23T01:19:02;48.70;;;23.85;;
66472;SDS011;70264;48.802;9.224;2023-05-23T01:21:06;51.65;;;22.98;;
66472;SDS011;70264;48.802;9.224;2023-05-23T01:26:40;48.10;;;22.48;;
66472;SDS011;70264;48.802;9.224;2023-05-23T01:29:23;47.40;;;22.13;;
66472;SDS011;70264;48.802;9.224;2023-05-23T01:31:53;52.80;;;22.95;;
66472;SDS011;70264;48.802;9.224;2023-05-23T01:34:25;51.65;;;22.42;;
66472;SDS011;70264;48.802;9.224;2023-05-23T01:36:53;47.05;;;22.85;;
66472;SDS011;70264;48.802;9.224;2023-05-23T01:39:20;52.65;;;24.25;;
66472;SDS011;70264;48.802;9.224;2023-05-23T01:41:45;50.33;;;23.75;;
66472;SDS011;70264;48.802;9.224;2023-05-23T01:44:13;50.58;;;23.65;;
66472;SDS011;70264;48.802;9.224;2023-05-23T01:46:41;51.72;;;22.15;;
66472;SDS011;70264;48.802;9.224;2023-05-23T01:49:08;45.55;;;21.88;;
66472;SDS011;70264;48.802;9.224;2023-05-23T01:51:38;50.60;;;24.67;;
66472;SDS011;70264;48.802;9.224;2023-05-23T01:54:07;55.38;;;25.73;;
66472;SDS011;70264;48.802;9.224;2023-05-23T01:56:32;51.13;;;24.88;;
66472;SDS011;70264;48.802;9.224;2023-05-23T01:58:58;54.55;;;26.48;;
66472;SDS011;70264;48.802;9.224;2023-05-23T02:01:24;55.63;;;25.35;;
66472;SDS011;70264;48.802;9.224;2023-05-23T02:03:50;52.50;;;26.13;;
66472;SDS011;70264;48.802;9.224;2023-05-23T02:06:17;54.95;;;25.63;;
66472;SDS011;70264;48.802;9.224;2023-05-23T02:08:45;53.95;;;24.30;;
66472;SDS011;70264;48.802;9.224;2023-05-23T02:11:12;54.35;;;26.00;;
66472;SDS011;70264;48.802;9.224;2023-05-23T02:13:38;59.25;;;27.27;;
66472;SDS011;70264;48.802;9.224;2023-05-23T02:16:03;52.83;;;24.87;;
66472;SDS011;70264;48.802;9.224;2023-05-23T02:18:29;52.65;;;23.85;;
66472;SDS011;70264;48.802;9.224;2023-05-23T02:20:54;54.00;;;25.60;;
66472;SDS011;70264;48.802;9.224;2023-05-23T02:23:20;51.80;;;25.25;;
66472;SDS011;70264;48.802;9.224;2023-05-23T02:25:48;59.13;;;29.33;;
66472;SDS011;70264;48.802;9.224;2023-05-23T02:28:18;56.03;;;27.83;;
66472;SDS011;70264;48.802;9.224;2023-05-23T02:30:43;60.05;;;28.85;;
66472;SDS011;70264;48.802;9.224;2023-05-23T02:33:08;60.28;;;28.42;;
66472;SDS011;70264;48.802;9.224;2023-05-23T02:35:34;62.65;;;28.48;;
66472;SDS011;70264;48.802;9.224;2023-05-23T02:38:00;62.28;;;28.35;;
66472;SDS011;70264;48.802;9.224;2023-05-23T02:40:27;60.10;;;27.83;;
66472;SDS011;70264;48.802;9.224;2023-05-23T02:42:53;57.13;;;27.50;;
66472;SDS011;70264;48.802;9.224;2023-05-23T02:45:21;59.08;;;28.55;;
66472;SDS011;70264;48.802;9.224;2023-05-23T02:47:47;56.28;;;28.65;;
66472;SDS011;70264;48.802;9.224;2023-05-23T02:50:12;62.57;;;29.33;;
66472;SDS011;70264;48.802;9.224;2023-05-23T02:52:40;62.70;;;29.98;;
66472;SDS011;70264;48.802;9.224;2023-05-23T02:55:06;57.15;;;27.83;;
66472;SDS011;70264;48.802;9.224;2023-05-23T02:57:32;53.85;;;27.23;;
66472;SDS011;70264;48.802;9.224;2023-05-23T02:59:57;58.93;;;28.20;;
66472;SDS011;70264;48.802;9.224;2023-05-23T03:02:25;59.15;;;28.95;;
66472;SDS011;70264;48.802;9.224;2023-05-23T03:04:50;58.45;;;28.95;;
66472;SDS011;70264;48.802;9.224;2023-05-23T03:07:20;62.40;;;30.38;;
66472;SDS011;70264;48.802;9.224;2023-05-23T03:09:47;58.60;;;28.83;;
66472;SDS011;70264;48.802;9.224;2023-05-23T03:12:17;56.85;;;29.63;;
66472;SDS011;70264;48.802;9.224;2023-05-23T03:14:45;60.00;;;29.48;;
66472;SDS011;70264;48.802;9.224;2023-05-23T03:17:12;55.22;;;28.42;;
66472;SDS011;70264;48.802;9.224;2023-05-23T03:19:40;56.28;;;28.15;;
66472;SDS011;70264;48.802;9.224;2023-05-23T03:22:05;57.17;;;28.40;;
66472;SDS011;70264;48.802;9.224;2023-05-23T03:24:31;57.92;;;28.52;;
66472;SDS011;70264;48.802;9.224;2023-05-23T03:26:56;59.00;;;28.92;;
66472;SDS011;70264;48.802;9.224;2023-05-23T03:29:25;57.00;;;27.77;;
66472;SDS011;70264;48.802;9.224;2023-05-23T03:31:50;50.30;;;26.33;;
66472;SDS011;70264;48.802;9.224;2023-05-23T03:34:15;57.40;;;29.20;;
66472;SDS011;70264;48.802;9.224;2023-05-23T03:36:41;52.67;;;27.13;;
66472;SDS011;70264;48.802;9.224;2023-05-23T03:39:07;54.72;;;29.00;;
66472;SDS011;70264;48.802;9.224;2023-05-23T03:41:32;53.67;;;26.70;;
66472;SDS011;70264;48.802;9.224;2023-05-23T03:43:57;61.00;;;28.90;;
66472;SDS011;70264;48.802;9.224;2023-05-23T03:46:25;53.47;;;26.60;;
66472;SDS011;70264;48.802;9.224;2023-05-23T03:48:53;57.55;;;28.63;;
66472;SDS011;70264;48.802;9.224;2023-05-23T03:51:18;51.80;;;26.13;;
66472;SDS011;70264;48.802;9.224;2023-05-23T03:53:43;54.97;;;27.03;;
66472;SDS011;70264;48.802;9.224;2023-05-23T03:56:09;52.65;;;26.42;;
66472;SDS011;70264;48.802;9.224;2023-05-23T03:58:34;50.97;;;26.45;;
66472;SDS011;70264;48.802;9.224;2023-05-23T04:01:02;55.13;;;27.17;;
66472;SDS011;70264;48.802;9.224;2023-05-23T04:03:29;52.53;;;27.17;;
66472;SDS011;70264;48.802;9.224;2023-05-23T04:05:59;51.50;;;26.45;;
66472;SDS011;70264;48.802;9.224;2023-05-23T04:08:25;54.38;;;27.48;;
66472;SDS011;70264;48.802;9.224;2023-05-23T04:10:51;53.45;;;26.83;;
66472;SDS011;70264;48.802;9.224;2023-05-23T04:13:18;54.85;;;26.73;;
66472;SDS011;70264;48.802;9.224;2023-05-23T04:15:51;48.35;;;25.20;;
66472;SDS011;70264;48.802;9.224;2023-05-23T04:18:19;48.97;;;26.15;;
66472;SDS011;70264;48.802;9.224;2023-05-23T04:20:49;51.13;;;26.50;;
66472;SDS011;70264;48.802;9.224;2023-05-23T04:23:15;49.30;;;25.25;;
66472;SDS011;70264;48.802;9.224;2023-05-23T04:25:42;50.92;;;25.50;;
66472;SDS011;70264;48.802;9.224;2023-05-23T04:28:08;48.40;;;26.92;;
66472;SDS011;70264;48.802;9.224;2023-05-23T04:30:34;51.40;;;25.25;;
66472;SDS011;70264;48.802;9.224;2023-05-23T04:33:00;48.28;;;25.65;;
66472;SDS011;70264;48.802;9.224;2023-05-23T04:35:25;44.47;;;24.15;;
66472;SDS011;70264;48.802;9.224;2023-05-23T04:37:53;46.90;;;25.42;;
66472;SDS011;70264;48.802;9.224;2023-05-23T04:40:21;48.15;;;24.92;;
66472;SDS011;70264;48.802;9.224;2023-05-23T04:42:49;47.88;;;26.45;;
66472;SDS011;70264;48.802;9.224;2023-05-23T04:45:20;48.60;;;25.13;;
66472;SDS011;70264;48.802;9.224;2023-05-23T04:47:48;44.47;;;24.40;;
66472;SDS011;70264;48.802;9.224;2023-05-23T04:50:13;47.67;;;25.48;;
66472;SDS011;70264;48.802;9.224;2023-05-23T04:52:42;48.97;;;24.30;;
66472;SDS011;70264;48.802;9.224;2023-05-23T04:55:07;44.90;;;24.50;;
66472;SDS011;70264;48.802;9.224;2023-05-23T04:57:33;45.60;;;24.88;;
66472;SDS011;70264;48.802;9.224;2023-05-23T05:00:02;44.92;;;25.80;;
66472;SDS011;70264;48.802;9.224;2023-05-23T05:02:34;44.88;;;25.50;;
66472;SDS011;70264;48.802;9.224;2023-05-23T05:05:00;46.38;;;24.50;;
66472;SDS011;70264;48.802;9.224;2023-05-23T05:07:28;46.65;;;25.35;;
66472;SDS011;70264;48.802;9.224;2023-05-23T05:09:56;49.15;;;24.70;;
66472;SDS011;70264;48.802;9.224;2023-05-23T05:12:24;48.30;;;24.25;;
66472;SDS011;70264;48.802;9.224;2023-05-23T05:14:52;46.33;;;25.00;;
66472;SDS011;70264;48.802;9.224;2023-05-23T05:17:17;43.28;;;23.45;;
66472;SDS011;70264;48.802;9.224;2023-05-23T05:19:45;44.45;;;24.95;;
66472;SDS011;70264;48.802;9.224;2023-05-23T05:22:10;42.80;;;25.10;;
66472;SDS011;70264;48.802;9.224;2023-05-23T05:24:39;44.00;;;23.38;;
66472;SDS011;70264;48.802;9.224;2023-05-23T05:27:05;42.65;;;23.20;;
66472;SDS011;70264;48.802;9.224;2023-05-23T05:29:30;39.20;;;23.40;;
66472;SDS011;70264;48.802;9.224;2023-05-23T05:31:58;42.00;;;25.30;;
66472;SDS011;70264;48.802;9.224;2023-05-23T05:34:25;44.47;;;23.10;;
66472;SDS011;70264;48.802;9.224;2023-05-23T05:36:58;44.58;;;23.25;;
66472;SDS011;70264;48.802;9.224;2023-05-23T05:39:23;41.95;;;22.92;;
66472;SDS011;70264;48.802;9.224;2023-05-23T05:41:50;47.08;;;23.95;;
66472;SDS011;70264;48.802;9.224;2023-05-23T05:44:15;41.67;;;24.53;;
66472;SDS011;70264;48.802;9.224;2023-05-23T05:46:40;41.50;;;24.77;;
66472;SDS011;70264;48.802;9.224;2023-05-23T05:49:06;41.23;;;23.60;;
66472;SDS011;70264;48.802;9.224;2023-05-23T05:51:31;42.27;;;23.87;;
66472;SDS011;70264;48.802;9.224;2023-05-23T05:53:56;41.97;;;23.02;;
66472;SDS011;70264;48.802;9.224;2023-05-23T05:56:22;39.25;;;22.45;;
66472;SDS011;70264;48.802;9.224;2023-05-23T05:58:49;41.77;;;23.43;;
66472;SDS011;70264;48.802;9.224;2023-05-23T06:01:20;44.25;;;24.50;;
66472;SDS011;70264;48.802;9.224;2023-05-23T06:03:45;37.23;;;22.07;;
66472;SDS011;70264;48.802;9.224;2023-05-23T06:06:12;42.50;;;24.10;;
66472;SDS011;70264;48.802;9.224;2023-05-23T06:08:38;42.42;;;23.23;;
66472;SDS011;70264;48.802;9.224;2023-05-23T06:11:03;40.08;;;23.95;;
66472;SDS011;70264;48.802;9.224;2023-05-23T06:13:33;41.38;;;23.40;;
66472;SDS011;70264;48.802;9.224;2023-05-23T06:15:58;40.50;;;23.27;;
66472;SDS011;70264;48.802;9.224;2023-05-23T06:18:28;39.83;;;23.20;;
66472;SDS011;70264;48.802;9.224;2023-05-23T06:20:54;37.72;;;22.90;;
66472;SDS011;70264;48.802;9.224;2023-05-23T06:23:20;37.42;;;21.70;;
66472;SDS011;70264;48.802;9.224;2023-05-23T06:25:45;38.03;;;22.60;;
66472;SDS011;70264;48.802;9.224;2023-05-23T06:28:10;40.13;;;22.53;;
66472;SDS011;70264;48.802;9.224;2023-05-23T06:30:35;37.97;;;23.07;;
66472;SDS011;70264;48.802;9.224;2023-05-23T06:33:02;39.47;;;22.95;;
66472;SDS011;70264;48.802;9.224;2023-05-23T06:35:27;37.55;;;22.77;;
66472;SDS011;70264;48.802;9.224;2023-05-23T06:37:55;41.22;;;22.75;;
66472;SDS011;70264;48.802;9.224;2023-05-23T06:40:20;36.63;;;22.03;;
66472;SDS011;70264;48.802;9.224;2023-05-23T06:42:46;39.70;;;22.20;;
66472;SDS011;70264;48.802;9.224;2023-05-23T06:45:14;41.15;;;24.10;;
66472;SDS011;70264;48.802;9.224;2023-05-23T06:47:40;40.20;;;24.67;;
66472;SDS011;70264;48.802;9.224;2023-05-23T06:50:07;43.03;;;23.85;;
66472;SDS011;70264;48.802;9.224;2023-05-23T06:52:33;41.65;;;23.80;;
66472;SDS011;70264;48.802;9.224;2023-05-23T06:54:58;42.57;;;24.03;;
66472;SDS011;70264;48.802;9.224;2023-05-23T06:57:26;38.90;;;23.55;;
66472;SDS011;70264;48.802;9.224;2023-05-23T06:59:52;39.83;;;23.30;;
66472;SDS011;70264;48.802;9.224;2023-05-23T07:02:20;45.92;;;25.50;;
66472;SDS011;70264;48.802;9.224;2023-05-23T07:04:45;39.47;;;23.47;;
66472;SDS011;70264;48.802;9.224;2023-05-23T07:07:13;40.58;;;24.45;;
66472;SDS011;70264;48.802;9.224;2023-05-23T07:09:38;39.40;;;23.03;;
66472;SDS011;70264;48.802;9.224;2023-05-23T07:12:04;43.10;;;24.63;;
66472;SDS011;70264;48.802;9.224;2023-05-23T07:14:32;42.20;;;24.20;;
66472;SDS011;70264;48.802;9.224;2023-05-23T07:17:02;38.00;;;22.75;;
66472;SDS011;70264;48.802;9.224;2023-05-23T07:19:30;39.03;;;23.90;;
66472;SDS011;70264;48.802;9.224;2023-05-23T07:21:58;37.38;;;21.40;;
66472;SDS011;70264;48.802;9.224;2023-05-23T07:24:25;34.35;;;20.45;;
66472;SDS011;70264;48.802;9.224;2023-05-23T07:26:51;34.75;;;19.50;;
66472;SDS011;70264;48.802;9.224;2023-05-23T07:29:16;30.92;;;18.52;;
66472;SDS011;70264;48.802;9.224;2023-05-23T07:31:44;30.60;;;17.95;;
66472;SDS011;70264;48.802;9.224;2023-05-23T07:34:11;28.67;;;18.27;;
66472;SDS011;70264;48.802;9.224;2023-05-23T07:36:39;27.90;;;17.98;;
66472;SDS011;70264;48.802;9.224;2023-05-23T07:39:05;26.92;;;17.02;;
66472;SDS011;70264;48.802;9.224;2023-05-23T07:41:32;26.80;;;16.80;;
66472;SDS011;70264;48.802;9.224;2023-05-23T07:43:58;27.07;;;16.30;;
66472;SDS011;70264;48.802;9.224;2023-05-23T07:46:23;26.90;;;16.30;;
66472;SDS011;70264;48.802;9.224;2023-05-23T07:48:50;27.17;;;15.30;;
66472;SDS011;70264;48.802;9.224;2023-05-23T07:51:16;26.48;;;15.90;;
66472;SDS011;70264;48.802;9.224;2023-05-23T07:53:45;26.00;;;16.23;;
66472;SDS011;70264;48.802;9.224;2023-05-23T07:56:11;26.27;;;17.02;;
66472;SDS011;70264;48.802;9.224;2023-05-23T07:58:36;29.95;;;17.98;;
66472;SDS011;70264;48.802;9.224;2023-05-23T08:01:04;27.88;;;16.95;;
66472;SDS011;70264;48.802;9.224;2023-05-23T08:03:29;25.00;;;16.00;;
66472;SDS011;70264;48.802;9.224;2023-05-23T08:05:57;25.00;;;15.75;;
66472;SDS011;70264;48.802;9.224;2023-05-23T08:08:22;24.30;;;15.93;;
66472;SDS011;70264;48.802;9.224;2023-05-23T08:10:47;26.70;;;16.03;;
66472;SDS011;70264;48.802;9.224;2023-05-23T08:13:15;26.77;;;16.42;;
66472;SDS011;70264;48.802;9.224;2023-05-23T08:15:40;25.10;;;15.50;;
66472;SDS011;70264;48.802;9.224;2023-05-23T08:18:06;24.48;;;15.88;;
66472;SDS011;70264;48.802;9.224;2023-05-23T08:20:34;23.60;;;15.13;;
66472;SDS011;70264;48.802;9.224;2023-05-23T08:22:59;22.65;;;14.27;;
66472;SDS011;70264;48.802;9.224;2023-05-23T08:25:28;23.13;;;14.35;;
66472;SDS011;70264;48.802;9.224;2023-05-23T08:27:57;23.67;;;15.32;;
66472;SDS011;70264;48.802;9.224;2023-05-23T08:30:24;21.70;;;14.10;;
66472;SDS011;70264;48.802;9.224;2023-05-23T08:32:50;23.65;;;15.20;;
66472;SDS011;70264;48.802;9.224;2023-05-23T08:35:19;23.83;;;14.77;;
66472;SDS011;70264;48.802;9.224;2023-05-23T08:37:45;23.88;;;14.35;;
66472;SDS011;70264;48.802;9.224;2023-05-23T08:40:21;22.15;;;14.15;;
66472;SDS011;70264;48.802;9.224;2023-05-23T08:42:49;21.08;;;13.75;;
66472;SDS011;70264;48.802;9.224;2023-05-23T08:45:15;24.23;;;14.63;;
66472;SDS011;70264;48.802;9.224;2023-05-23T08:47:44;22.02;;;13.68;;
66472;SDS011;70264;48.802;9.224;2023-05-23T08:50:15;22.95;;;13.23;;
66472;SDS011;70264;48.802;9.224;2023-05-23T08:55:18;19.38;;;12.80;;
66472;SDS011;70264;48.802;9.224;2023-05-23T08:57:44;21.30;;;12.57;;
66472;SDS011;70264;48.802;9.224;2023-05-23T09:00:13;21.10;;;12.88;;
66472;SDS011;70264;48.802;9.224;2023-05-23T09:02:46;20.55;;;13.02;;
66472;SDS011;70264;48.802;9.224;2023-05-23T09:05:16;19.80;;;12.90;;
66472;SDS011;70264;48.802;9.224;2023-05-23T09:07:44;21.13;;;12.27;;
66472;SDS011;70264;48.802;9.224;2023-05-23T09:10:11;19.98;;;12.52;;
66472;SDS011;70264;48.802;9.224;2023-05-23T09:12:38;19.35;;;12.80;;
66472;SDS011;70264;48.802;9.224;2023-05-23T09:15:06;20.20;;;12.35;;
66472;SDS011;70264;48.802;9.224;2023-05-23T09:17:34;20.42;;;12.20;;
66472;SDS011;70264;48.802;9.224;2023-05-23T09:20:09;21.15;;;14.13;;
66472;SDS011;70264;48.802;9.224;2023-05-23T09:22:44;19.27;;;11.07;;
66472;SDS011;70264;48.802;9.224;2023-05-23T09:25:11;19.73;;;12.93;;
66472;SDS011;70264;48.802;9.224;2023-05-23T09:27:39;21.83;;;12.43;;
66472;SDS011;70264;48.802;9.224;2023-05-23T09:30:08;21.50;;;13.00;;
66472;SDS011;70264;48.802;9.224;2023-05-23T09:32:35;20.00;;;12.25;;
66472;SDS011;70264;48.802;9.224;2023-05-23T09:35:01;19.90;;;12.27;;
66472;SDS011;70264;48.802;9.224;2023-05-23T09:37:28;18.80;;;11.82;;
66472;SDS011;70264;48.802;9.224;2023-05-23T09:39:59;18.67;;;11.85;;
66472;SDS011;70264;48.802;9.224;2023-05-23T09:42:30;20.77;;;12.07;;
66472;SDS011;70264;48.802;9.224;2023-05-23T09:44:57;17.55;;;11.35;;
66472;SDS011;70264;48.802;9.224;2023-05-23T09:47:22;18.40;;;10.88;;
66472;SDS011;70264;48.802;9.224;2023-05-23T09:49:47;19.55;;;10.90;;
66472;SDS011;70264;48.802;9.224;2023-05-23T09:52:15;19.45;;;11.63;;
66472;SDS011;70264;48.802;9.224;2023-05-23T09:54:46;17.25;;;10.93;;
66472;SDS011;70264;48.802;9.224;2023-05-23T09:57:14;16.30;;;10.48;;
66472;SDS011;70264;48.802;9.224;2023-05-23T09:59:44;15.98;;;10.20;;
66472;SDS011;70264;48.802;9.224;2023-05-23T10:02:15;15.88;;;10.10;;
66472;SDS011;70264;48.802;9.224;2023-05-23T10:04:51;16.58;;;10.15;;
66472;SDS011;70264;48.802;9.224;2023-05-23T10:07:18;13.98;;;9.52;;
66472;SDS011;70264;48.802;9.224;2023-05-23T10:09:53;15.30;;;10.18;;
66472;SDS011;70264;48.802;9.224;2023-05-23T10:15:04;16.77;;;9.32;;
66472;SDS011;70264;48.802;9.224;2023-05-23T10:20:38;14.88;;;9.25;;
66472;SDS011;70264;48.802;9.224;2023-05-23T10:23:07;16.10;;;9.55;;
66472;SDS011;70264;48.802;9.224;2023-05-23T10:25:32;12.40;;;8.63;;
66472;SDS011;70264;48.802;9.224;2023-05-23T10:28:00;14.80;;;8.35;;
66472;SDS011;70264;48.802;9.224;2023-05-23T10:30:27;12.98;;;8.40;;
66472;SDS011;70264;48.802;9.224;2023-05-23T10:32:53;14.55;;;9.18;;
66472;SDS011;70264;48.802;9.224;2023-05-23T10:37:55;12.98;;;8.35;;
66472;SDS011;70264;48.802;9.224;2023-05-23T10:43:00;15.53;;;9.53;;
66472;SDS011;70264;48.802;9.224;2023-05-23T10:45:38;12.40;;;8.10;;
66472;SDS011;70264;48.802;9.224;2023-05-23T10:51:08;12.75;;;8.73;;
66472;SDS011;70264;48.802;9.224;2023-05-23T10:53:43;12.35;;;8.23;;
66472;SDS011;70264;48.802;9.224;2023-05-23T10:56:19;11.85;;;7.78;;
66472;SDS011;70264;48.802;9.224;2023-05-23T10:58:50;12.13;;;7.55;;
66472;SDS011;70264;48.802;9.224;2023-05-23T11:01:19;11.75;;;7.35;;
66472;SDS011;70264;48.802;9.224;2023-05-23T11:14:19;11.48;;;6.47;;
66472;SDS011;70264;48.802;9.224;2023-05-23T11:19:39;11.73;;;6.75;;
66472;SDS011;70264;48.802;9.224;2023-05-23T11:22:19;11.68;;;6.40;;
66472;SDS011;70264;48.802;9.224;2023-05-23T11:24:48;10.73;;;6.20;;
66472;SDS011;70264;48.802;9.224;2023-05-23T11:27:15;9.50;;;5.80;;
66472;SDS011;70264;48.802;9.224;2023-05-23T11:29:46;9.32;;;5.72;;
66472;SDS011;70264;48.802;9.224;2023-05-23T11:32:21;8.15;;;5.50;;
66472;SDS011;70264;48.802;9.224;2023-05-23T11:34:51;9.20;;;6.13;;
66472;SDS011;70264;48.802;9.224;2023-05-23T11:37:19;8.15;;;5.28;;
66472;SDS011;70264;48.802;9.224;2023-05-23T11:39:44;10.63;;;6.55;;
66472;SDS011;70264;48.802;9.224;2023-05-23T11:42:12;11.48;;;6.30;;
66472;SDS011;70264;48.802;9.224;2023-05-23T11:44:39;10.50;;;6.60;;
66472;SDS011;70264;48.802;9.224;2023-05-23T11:47:07;10.15;;;6.80;;
66472;SDS011;70264;48.802;9.224;2023-05-23T11:49:36;10.48;;;7.00;;
66472;SDS011;70264;48.802;9.224;2023-05-23T11:52:03;10.88;;;7.07;;
66472;SDS011;70264;48.802;9.224;2023-05-23T11:54:30;11.82;;;7.57;;
66472;SDS011;70264;48.802;9.224;2023-05-23T11:56:58;11.90;;;7.45;;
66472;SDS011;70264;48.802;9.224;2023-05-23T11:59:27;9.55;;;6.60;;
66472;SDS011;70264;48.802;9.224;2023-05-23T12:01:53;10.98;;;6.90;;
66472;SDS011;70264;48.802;9.224;2023-05-23T12:04:22;10.32;;;6.70;;
66472;SDS011;70264;48.802;9.224;2023-05-23T12:06:50;10.82;;;6.20;;
66472;SDS011;70264;48.802;9.224;2023-05-23T12:09:17;11.70;;;6.80;;
66472;SDS011;70264;48.802;9.224;2023-05-23T12:11:43;9.77;;;6.63;;
66472;SDS011;70264;48.802;9.224;2023-05-23T12:14:13;11.38;;;6.25;;
66472;SDS011;70264;48.802;9.224;2023-05-23T12:19:08;9.02;;;6.00;;
66472;SDS011;70264;48.802;9.224;2023-05-23T12:21:40;11.07;;;6.93;;
66472;SDS011;70264;48.802;9.224;2023-05-23T12:26:53;9.68;;;6.25;;
66472;SDS011;70264;48.802;9.224;2023-05-23T12:29:28;9.05;;;5.88;;
66472;SDS011;70264;48.802;9.224;2023-05-23T12:31:56;9.52;;;5.78;;
66472;SDS011;70264;48.802;9.224;2023-05-23T12:34:22;10.15;;;5.43;;
66472;SDS011;70264;48.802;9.224;2023-05-23T12:36:53;8.70;;;6.03;;
66472;SDS011;70264;48.802;9.224;2023-05-23T12:39:25;9.57;;;5.47;;
66472;SDS011;70264;48.802;9.224;2023-05-23T12:41:57;9.60;;;5.80;;
66472;SDS011;70264;48.802;9.224;2023-05-23T12:44:34;7.53;;;4.97;;
66472;SDS011;70264;48.802;9.224;2023-05-23T12:47:01;8.05;;;5.50;;
66472;SDS011;70264;48.802;9.224;2023-05-23T12:51:59;9.75;;;5.50;;
66472;SDS011;70264;48.802;9.224;2023-05-23T12:54:27;7.72;;;4.70;;
66472;SDS011;70264;48.802;9.224;2023-05-23T12:56:52;8.17;;;5.20;;
66472;SDS011;70264;48.802;9.224;2023-05-23T12:59:18;8.75;;;5.35;;
66472;SDS011;70264;48.802;9.224;2023-05-23T13:01:43;8.38;;;5.18;;
66472;SDS011;70264;48.802;9.224;2023-05-23T13:04:09;7.70;;;4.90;;
66472;SDS011;70264;48.802;9.224;2023-05-23T13:06:36;7.50;;;4.47;;
66472;SDS011;70264;48.802;9.224;2023-05-23T13:09:04;6.90;;;4.68;;
66472;SDS011;70264;48.802;9.224;2023-05-23T13:11:29;8.33;;;4.50;;
66472;SDS011;70264;48.802;9.224;2023-05-23T13:13:55;7.05;;;4.35;;
66472;SDS011;70264;48.802;9.224;2023-05-23T13:16:21;7.53;;;4.22;;
66472;SDS011;70264;48.802;9.224;2023-05-23T13:18:48;7.82;;;4.38;;
66472;SDS011;70264;48.802;9.224;2023-05-23T13:21:14;9.45;;;4.70;;
66472;SDS011;70264;48.802;9.224;2023-05-23T13:23:42;8.23;;;3.97;;
66472;SDS011;70264;48.802;9.224;2023-05-23T13:26:09;5.53;;;3.95;;
66472;SDS011;70264;48.802;9.224;2023-05-23T13:28:39;6.40;;;3.83;;
66472;SDS011;70264;48.802;9.224;2023-05-23T13:31:07;7.55;;;3.88;;
66472;SDS011;70264;48.802;9.224;2023-05-23T13:33:32;6.20;;;3.93;;
66472;SDS011;70264;48.802;9.224;2023-05-23T13:35:58;8.10;;;3.45;;
66472;SDS011;70264;48.802;9.224;2023-05-23T13:38:26;5.40;;;3.20;;
66472;SDS011;70264;48.802;9.224;2023-05-23T13:40:51;5.38;;;3.60;;
66472;SDS011;70264;48.802;9.224;2023-05-23T13:43:19;6.60;;;4.20;;
66472;SDS011;70264;48.802;9.224;2023-05-23T13:45:47;6.53;;;4.22;;
66472;SDS011;70264;48.802;9.224;2023-05-23T13:48:12;6.57;;;4.00;;
66472;SDS011;70264;48.802;9.224;2023-05-23T13:50:38;5.47;;;3.50;;
66472;SDS011;70264;48.802;9.224;2023-05-23T13:53:03;6.10;;;3.63;;
66472;SDS011;70264;48.802;9.224;2023-05-23T13:55:32;6.35;;;3.72;;
66472;SDS011;70264;48.802;9.224;2023-05-23T13:57:59;5.30;;;3.60;;
66472;SDS011;70264;48.802;9.224;2023-05-23T14:00:25;5.40;;;3.47;;
66472;SDS011;70264;48.802;9.224;2023-05-23T14:02:50;5.15;;;3.40;;
66472;SDS011;70264;48.802;9.224;2023-05-23T14:05:15;7.17;;;3.70;;
66472;SDS011;70264;48.802;9.224;2023-05-23T14:07:43;5.68;;;3.65;;
66472;SDS011;70264;48.802;9.224;2023-05-23T14:10:11;5.05;;;3.53;;
66472;SDS011;70264;48.802;9.224;2023-05-23T14:12:38;5.95;;;3.45;;
66472;SDS011;70264;48.802;9.224;2023-05-23T14:15:06;5.07;;;3.47;;
66472;SDS011;70264;48.802;9.224;2023-05-23T14:17:32;6.28;;;3.40;;
66472;SDS011;70264;48.802;9.224;2023-05-23T14:20:01;5.10;;;3.45;;
66472;SDS011;70264;48.802;9.224;2023-05-23T14:22:29;5.60;;;3.67;;
66472;SDS011;70264;48.802;9.224;2023-05-23T14:24:56;5.38;;;3.63;;
66472;SDS011;70264;48.802;9.224;2023-05-23T14:27:25;5.80;;;3.72;;
66472;SDS011;70264;48.802;9.224;2023-05-23T14:29:53;4.95;;;2.83;;
66472;SDS011;70264;48.802;9.224;2023-05-23T14:32:23;5.35;;;3.53;;
66472;SDS011;70264;48.802;9.224;2023-05-23T14:34:48;6.82;;;3.42;;
66472;SDS011;70264;48.802;9.224;2023-05-23T14:37:14;6.00;;;3.42;;
66472;SDS011;70264;48.802;9.224;2023-05-23T14:39:42;5.50;;;2.92;;
66472;SDS011;70264;48.802;9.224;2023-05-23T14:42:07;5.13;;;3.20;;
66472;SDS011;70264;48.802;9.224;2023-05-23T14:44:34;6.05;;;3.10;;
66472;SDS011;70264;48.802;9.224;2023-05-23T14:47:00;5.30;;;2.70;;
66472;SDS011;70264;48.802;9.224;2023-05-23T14:49:27;5.05;;;3.33;;
66472;SDS011;70264;48.802;9.224;2023-05-23T14:51:53;5.20;;;3.10;;
66472;SDS011;70264;48.802;9.224;2023-05-23T14:54:18;4.38;;;2.78;;
66472;SDS011;70264;48.802;9.224;2023-05-23T14:56:43;5.93;;;2.97;;
66472;SDS011;70264;48.802;9.224;2023-05-23T14:59:09;5.65;;;2.38;;
66472;SDS011;70264;48.802;9.224;2023-05-23T15:01:36;4.90;;;2.65;;
66472;SDS011;70264;48.802;9.224;2023-05-23T15:04:02;5.28;;;2.58;;
66472;SDS011;70264;48.802;9.224;2023-05-23T15:06:29;4.57;;;2.60;;
66472;SDS011;70264;48.802;9.224;2023-05-23T15:08:54;3.57;;;2.40;;
66472;SDS011;70264;48.802;9.224;2023-05-23T15:11:20;4.43;;;2.33;;
66472;SDS011;70264;48.802;9.224;2023-05-23T15:13:46;4.15;;;2.67;;